createdAt,value
2017-11-30T00:00:51.653Z,96813.70
2017-11-30T00:01:54.571Z,96816.16
2017-11-30T00:02:57.843Z,96815.07
2017-11-30T00:04:00.769Z,96812.55
2017-11-30T00:05:03.695Z,96818.30
2017-11-30T00:06:06.689Z,96817.31
2017-11-30T00:07:09.668Z,96816.38
2017-11-30T00:08:12.608Z,96812.93
2017-11-30T00:09:15.891Z,96817.95
2017-11-30T00:10:18.946Z,96822.66
2017-11-30T00:11:21.881Z,96817.52
2017-11-30T00:12:25.125Z,96820.80
2017-11-30T00:13:28.112Z,96818.84
2017-11-30T00:14:31.081Z,96818.30
2017-11-30T00:15:34.351Z,96821.31
2017-11-30T00:16:37.307Z,96816.36
2017-11-30T00:17:40.322Z,96826.34
2017-11-30T00:18:43.287Z,96822.52
2017-11-30T00:19:46.279Z,96821.53
2017-11-30T00:20:49.257Z,96819.62
2017-11-30T00:21:53.739Z,96818.67
2017-11-30T00:22:56.654Z,96819.84
2017-11-30T00:23:59.617Z,96819.23
2017-11-30T00:25:02.592Z,96821.73
2017-11-30T00:26:05.621Z,96817.31
2017-11-30T00:27:08.621Z,96810.39
2017-11-30T00:28:11.910Z,96817.85
2017-11-30T00:29:14.822Z,96813.27
2017-11-30T00:30:17.795Z,96811.92
2017-11-30T00:31:20.753Z,96808.88
2017-11-30T00:32:23.709Z,96812.52
2017-11-30T00:33:26.764Z,96809.47
2017-11-30T00:34:30.066Z,96803.56
2017-11-30T00:35:33.035Z,96804.14
2017-11-30T00:36:35.869Z,96809.48
2017-11-30T00:37:38.736Z,96807.20
2017-11-30T00:38:41.595Z,96811.81
2017-11-30T00:39:44.498Z,96809.70
2017-11-30T00:40:47.785Z,96810.84
2017-11-30T00:41:50.730Z,96816.63
2017-11-30T00:42:53.654Z,96809.92
2017-11-30T00:43:56.576Z,96807.22
2017-11-30T00:44:59.991Z,96801.66
2017-11-30T00:46:02.925Z,96807.60
2017-11-30T00:47:06.671Z,96805.89
2017-11-30T00:48:09.691Z,96805.30
2017-11-30T00:49:12.635Z,96815.82
2017-11-30T00:50:15.621Z,96802.57
2017-11-30T00:51:18.578Z,96806.79
2017-11-30T00:52:21.525Z,96811.78
2017-11-30T00:53:24.938Z,96807.97
2017-11-30T00:54:27.860Z,96803.34
2017-11-30T00:55:30.823Z,96801.06
2017-11-30T00:56:33.758Z,96804.87
2017-11-30T00:57:36.699Z,96798.93
2017-11-30T00:58:39.647Z,96798.58
2017-11-30T00:59:43.117Z,96799.32
2017-11-30T01:00:46.068Z,96794.55
2017-11-30T01:01:48.984Z,96794.13
2017-11-30T01:02:51.919Z,96795.48
2017-11-30T01:03:54.863Z,96788.80
2017-11-30T01:04:57.770Z,96792.96
2017-11-30T01:06:01.106Z,96793.37
2017-11-30T01:07:04.209Z,96794.54
2017-11-30T01:08:07.254Z,96794.13
2017-11-30T01:09:10.837Z,96789.95
2017-11-30T01:10:13.876Z,96793.35
2017-11-30T01:11:16.801Z,96792.79
2017-11-30T01:12:20.130Z,96793.92
2017-11-30T01:13:23.038Z,96796.82
2017-11-30T01:14:25.982Z,96793.94
2017-11-30T01:15:28.949Z,96795.09
2017-11-30T01:16:31.882Z,96793.56
2017-11-30T01:17:35.130Z,96792.23
2017-11-30T01:18:38.126Z,96788.20
2017-11-30T01:19:41.635Z,96794.49
2017-11-30T01:20:44.495Z,96794.72
2017-11-30T01:21:47.351Z,96792.41
2017-11-30T01:22:50.201Z,96788.77
2017-11-30T01:23:53.478Z,96789.50
2017-11-30T01:24:56.318Z,96796.43
2017-11-30T01:25:59.148Z,96793.73
2017-11-30T01:27:01.997Z,96791.63
2017-11-30T01:28:04.824Z,96795.48
2017-11-30T01:29:07.672Z,96799.67
2017-11-30T01:30:11.018Z,96797.17
2017-11-30T01:31:13.960Z,96801.01
2017-11-30T01:32:16.867Z,96794.11
2017-11-30T01:33:19.771Z,96797.17
2017-11-30T01:34:22.660Z,96797.36
2017-11-30T01:35:25.657Z,96802.37
2017-11-30T01:36:28.998Z,96794.33
2017-11-30T01:37:31.949Z,96795.86
2017-11-30T01:38:34.860Z,96803.50
2017-11-30T01:39:37.872Z,96791.63
2017-11-30T01:40:40.776Z,96794.14
2017-11-30T01:41:43.735Z,96791.61
2017-11-30T01:42:46.635Z,96791.84
2017-11-30T01:43:49.558Z,96792.42
2017-11-30T01:44:52.497Z,96790.30
2017-11-30T01:45:55.540Z,96793.73
2017-11-30T01:46:58.467Z,96789.14
2017-11-30T01:48:01.748Z,96794.89
2017-11-30T01:49:04.731Z,96797.14
2017-11-30T01:50:07.660Z,96792.17
2017-11-30T01:51:10.606Z,96790.83
2017-11-30T01:52:13.540Z,96787.55
2017-11-30T01:53:16.470Z,96787.78
2017-11-30T01:54:19.779Z,96792.02
2017-11-30T01:55:22.774Z,96796.62
2017-11-30T01:56:25.744Z,96792.19
2017-11-30T01:57:28.664Z,96792.36
2017-11-30T01:58:31.626Z,96795.39
2017-11-30T01:59:34.578Z,96789.05
2017-11-30T02:00:37.901Z,96794.66
2017-11-30T02:01:40.829Z,96796.36
2017-11-30T02:02:43.767Z,96791.77
2017-11-30T02:03:46.853Z,96797.30
2017-11-30T02:04:49.833Z,96791.77
2017-11-30T02:05:52.817Z,96786.20
2017-11-30T02:06:56.965Z,96790.59
2017-11-30T02:07:59.947Z,96791.60
2017-11-30T02:09:02.961Z,96791.02
2017-11-30T02:10:05.938Z,96792.72
2017-11-30T02:11:08.853Z,96792.89
2017-11-30T02:12:11.808Z,96794.05
2017-11-30T02:13:15.256Z,96788.91
2017-11-30T02:14:18.328Z,96802.93
2017-11-30T02:15:21.245Z,96798.69
2017-11-30T02:16:24.248Z,96797.75
2017-11-30T02:17:27.205Z,96797.17
2017-11-30T02:18:30.147Z,96797.94
2017-11-30T02:19:33.767Z,96790.65
2017-11-30T02:20:36.830Z,96794.89
2017-11-30T02:21:39.947Z,96791.83
2017-11-30T02:22:42.836Z,96788.39
2017-11-30T02:23:45.652Z,96788.20
2017-11-30T02:24:48.441Z,96790.72
2017-11-30T02:25:51.727Z,96785.15
2017-11-30T02:26:54.556Z,96783.42
2017-11-30T02:27:57.403Z,96782.25
2017-11-30T02:29:00.314Z,96778.44
2017-11-30T02:30:03.289Z,96779.21
2017-11-30T02:31:06.218Z,96778.61
2017-11-30T02:32:09.646Z,96774.98
2017-11-30T02:33:12.562Z,96768.09
2017-11-30T02:34:15.510Z,96773.24
2017-11-30T02:35:19.423Z,96777.09
2017-11-30T02:36:22.601Z,96768.10
2017-11-30T02:37:25.870Z,96769.22
2017-11-30T02:38:29.097Z,96768.87
2017-11-30T02:39:32.083Z,96763.67
2017-11-30T02:40:34.982Z,96771.53
2017-11-30T02:41:37.844Z,96768.48
2017-11-30T02:42:40.744Z,96770.01
2017-11-30T02:43:43.686Z,96767.88
2017-11-30T02:44:46.976Z,96765.73
2017-11-30T02:45:49.904Z,96761.95
2017-11-30T02:46:52.821Z,96758.50
2017-11-30T02:47:55.827Z,96756.55
2017-11-30T02:48:58.756Z,96757.89
2017-11-30T02:50:01.733Z,96763.08
2017-11-30T02:51:04.646Z,96753.69
2017-11-30T02:52:07.650Z,96748.72
2017-11-30T02:53:10.626Z,96754.27
2017-11-30T02:54:13.574Z,96749.30
2017-11-30T02:55:16.539Z,96754.30
2017-11-30T02:56:19.458Z,96756.94
2017-11-30T02:57:23.094Z,96754.47
2017-11-30T02:58:26.288Z,96760.98
2017-11-30T02:59:29.208Z,96756.38
2017-11-30T03:00:32.156Z,96752.55
2017-11-30T03:01:35.061Z,96755.63
2017-11-30T03:02:37.993Z,96753.67
2017-11-30T03:03:41.378Z,96749.83
2017-11-30T03:04:45.138Z,96746.77
2017-11-30T03:05:48.100Z,96754.23
2017-11-30T03:06:51.010Z,96753.48
2017-11-30T03:07:53.930Z,96754.08
2017-11-30T03:08:56.851Z,96756.73
2017-11-30T03:10:00.282Z,96758.09
2017-11-30T03:11:03.262Z,96756.78
2017-11-30T03:12:06.181Z,96755.78
2017-11-30T03:13:09.168Z,96756.14
2017-11-30T03:14:12.085Z,96758.67
2017-11-30T03:15:15.071Z,96753.30
2017-11-30T03:16:18.338Z,96752.31
2017-11-30T03:17:21.243Z,96752.89
2017-11-30T03:18:24.561Z,96756.95
2017-11-30T03:19:27.693Z,96763.28
2017-11-30T03:20:30.692Z,96766.15
2017-11-30T03:21:33.594Z,96761.36
2017-11-30T03:22:36.922Z,96760.02
2017-11-30T03:23:39.749Z,96764.25
2017-11-30T03:24:42.582Z,96763.25
2017-11-30T03:25:45.419Z,96761.91
2017-11-30T03:26:48.215Z,96766.91
2017-11-30T03:27:51.119Z,96760.57
2017-11-30T03:28:54.459Z,96757.72
2017-11-30T03:29:57.370Z,96763.06
2017-11-30T03:31:00.306Z,96759.02
2017-11-30T03:32:03.275Z,96759.03
2017-11-30T03:33:06.249Z,96757.31
2017-11-30T03:34:09.164Z,96757.11
2017-11-30T03:35:12.445Z,96763.06
2017-11-30T03:36:15.370Z,96759.61
2017-11-30T03:37:18.334Z,96754.86
2017-11-30T03:38:21.243Z,96759.64
2017-11-30T03:39:24.153Z,96756.97
2017-11-30T03:40:27.083Z,96759.64
2017-11-30T03:41:30.444Z,96756.39
2017-11-30T03:42:33.372Z,96754.29
2017-11-30T03:43:36.272Z,96749.11
2017-11-30T03:44:39.442Z,96759.84
2017-11-30T03:45:42.613Z,96754.83
2017-11-30T03:46:46.065Z,96756.19
2017-11-30T03:47:49.704Z,96752.54
2017-11-30T03:48:52.868Z,96750.64
2017-11-30T03:49:55.741Z,96750.08
2017-11-30T03:50:58.595Z,96751.22
2017-11-30T03:52:01.450Z,96755.42
2017-11-30T03:53:04.314Z,96749.12
2017-11-30T03:54:07.626Z,96754.08
2017-11-30T03:55:10.650Z,96749.67
2017-11-30T03:56:13.548Z,96757.34
2017-11-30T03:57:16.468Z,96747.78
2017-11-30T03:58:19.361Z,96759.27
2017-11-30T03:59:22.289Z,96755.42
2017-11-30T04:00:25.580Z,96755.06
2017-11-30T04:01:28.461Z,96752.38
2017-11-30T04:02:31.372Z,96750.27
2017-11-30T04:03:34.286Z,96754.86
2017-11-30T04:04:37.309Z,96748.74
2017-11-30T04:05:40.247Z,96750.63
2017-11-30T04:06:43.494Z,96744.70
2017-11-30T04:07:46.399Z,96749.87
2017-11-30T04:08:49.365Z,96752.95
2017-11-30T04:09:52.631Z,96750.45
2017-11-30T04:10:55.607Z,96749.67
2017-11-30T04:11:58.673Z,96755.83
2017-11-30T04:13:02.022Z,96750.84
2017-11-30T04:14:04.920Z,96751.42
2017-11-30T04:15:07.875Z,96746.05
2017-11-30T04:16:10.855Z,96750.83
2017-11-30T04:17:13.850Z,96758.67
2017-11-30T04:18:16.837Z,96758.31
2017-11-30T04:19:19.783Z,96756.21
2017-11-30T04:20:22.684Z,96754.87
2017-11-30T04:21:25.616Z,96753.72
2017-11-30T04:22:28.566Z,96758.12
2017-11-30T04:23:31.982Z,96754.86
2017-11-30T04:24:34.886Z,96755.64
2017-11-30T04:25:37.797Z,96756.39
2017-11-30T04:26:40.745Z,96755.65
2017-11-30T04:27:43.681Z,96758.30
2017-11-30T04:28:46.607Z,96765.03
2017-11-30T04:29:49.963Z,96757.92
2017-11-30T04:30:52.780Z,96758.89
2017-11-30T04:31:55.843Z,96751.60
2017-11-30T04:32:58.673Z,96756.22
2017-11-30T04:34:01.800Z,96745.66
2017-11-30T04:35:04.612Z,96749.31
2017-11-30T04:36:07.864Z,96756.97
2017-11-30T04:37:11.078Z,96749.70
2017-11-30T04:38:14.316Z,96751.04
2017-11-30T04:39:17.581Z,96757.36
2017-11-30T04:40:20.751Z,96748.17
2017-11-30T04:41:23.688Z,96753.72
2017-11-30T04:42:26.656Z,96746.23
2017-11-30T04:43:29.613Z,96755.63
2017-11-30T04:44:32.554Z,96745.27
2017-11-30T04:45:35.371Z,96742.80
2017-11-30T04:46:38.424Z,96752.95
2017-11-30T04:47:41.360Z,96748.35
2017-11-30T04:48:44.345Z,96746.06
2017-11-30T04:49:47.303Z,96749.33
2017-11-30T04:50:50.237Z,96743.94
2017-11-30T04:51:53.272Z,96744.32
2017-11-30T04:52:56.775Z,96746.81
2017-11-30T04:53:59.856Z,96745.09
2017-11-30T04:55:02.818Z,96747.02
2017-11-30T04:56:05.765Z,96752.38
2017-11-30T04:57:08.776Z,96741.06
2017-11-30T04:58:11.711Z,96740.68
2017-11-30T04:59:15.075Z,96745.30
2017-11-30T05:00:18.048Z,96739.71
2017-11-30T05:01:21.057Z,96744.15
2017-11-30T05:02:24.009Z,96738.95
2017-11-30T05:03:26.954Z,96737.41
2017-11-30T05:04:29.921Z,96738.39
2017-11-30T05:05:33.225Z,96744.70
2017-11-30T05:06:36.248Z,96738.17
2017-11-30T05:07:39.368Z,96739.52
2017-11-30T05:08:42.465Z,96746.23
2017-11-30T05:09:45.638Z,96744.51
2017-11-30T05:10:48.575Z,96744.72
2017-11-30T05:11:51.954Z,96743.38
2017-11-30T05:12:54.921Z,96738.37
2017-11-30T05:13:57.877Z,96736.64
2017-11-30T05:15:00.841Z,96739.70
2017-11-30T05:16:03.803Z,96740.48
2017-11-30T05:17:06.727Z,96735.86
2017-11-30T05:18:10.202Z,96740.10
2017-11-30T05:19:13.182Z,96734.35
2017-11-30T05:20:16.145Z,96738.59
2017-11-30T05:21:19.113Z,96740.09
2017-11-30T05:22:22.087Z,96739.91
2017-11-30T05:23:25.019Z,96742.22
2017-11-30T05:24:28.404Z,96744.13
2017-11-30T05:25:31.403Z,96746.83
2017-11-30T05:26:34.384Z,96744.32
2017-11-30T05:27:37.347Z,96742.21
2017-11-30T05:28:40.379Z,96745.09
2017-11-30T05:29:43.332Z,96744.32
2017-11-30T05:30:46.688Z,96745.30
2017-11-30T05:31:49.625Z,96747.58
2017-11-30T05:32:52.607Z,96753.52
2017-11-30T05:33:55.617Z,96741.23
2017-11-30T05:34:58.690Z,96739.52
2017-11-30T05:36:01.675Z,96738.94
2017-11-30T05:37:05.079Z,96744.70
2017-11-30T05:38:07.997Z,96736.22
2017-11-30T05:39:10.930Z,96739.70
2017-11-30T05:40:13.861Z,96738.55
2017-11-30T05:41:16.883Z,96732.41
2017-11-30T05:42:20.356Z,96728.97
2017-11-30T05:43:23.904Z,96734.35
2017-11-30T05:44:26.883Z,96731.25
2017-11-30T05:45:29.828Z,96732.02
2017-11-30T05:46:32.771Z,96731.86
2017-11-30T05:47:35.722Z,96727.62
2017-11-30T05:48:38.717Z,96733.39
2017-11-30T05:49:42.056Z,96736.27
2017-11-30T05:50:45.010Z,96736.28
2017-11-30T05:51:48.355Z,96732.77
2017-11-30T05:52:51.362Z,96734.70
2017-11-30T05:53:54.307Z,96734.27
2017-11-30T05:54:57.299Z,96731.39
2017-11-30T05:56:01.609Z,96731.61
2017-11-30T05:57:04.517Z,96726.84
2017-11-30T05:58:07.537Z,96734.66
2017-11-30T05:59:10.531Z,96726.47
2017-11-30T06:00:13.455Z,96731.64
2017-11-30T06:01:16.343Z,96733.12
2017-11-30T06:02:19.180Z,96729.53
2017-11-30T06:03:22.038Z,96723.61
2017-11-30T06:04:24.915Z,96722.26
2017-11-30T06:05:27.832Z,96728.73
2017-11-30T06:06:30.705Z,96735.11
2017-11-30T06:07:34.039Z,96730.89
2017-11-30T06:08:37.469Z,96726.82
2017-11-30T06:09:40.327Z,96727.78
2017-11-30T06:10:43.320Z,96729.09
2017-11-30T06:11:46.174Z,96730.27
2017-11-30T06:12:49.630Z,96727.17
2017-11-30T06:13:52.956Z,96727.01
2017-11-30T06:14:55.986Z,96721.67
2017-11-30T06:15:58.950Z,96722.45
2017-11-30T06:17:01.887Z,96719.38
2017-11-30T06:18:05.139Z,96719.19
2017-11-30T06:19:08.081Z,96712.86
2017-11-30T06:20:11.511Z,96719.55
2017-11-30T06:21:14.508Z,96717.66
2017-11-30T06:22:17.442Z,96713.25
2017-11-30T06:23:21.047Z,96711.66
2017-11-30T06:24:23.995Z,96714.16
2017-11-30T06:25:26.970Z,96714.70
2017-11-30T06:26:29.932Z,96713.11
2017-11-30T06:27:32.908Z,96712.69
2017-11-30T06:28:35.861Z,96712.50
2017-11-30T06:29:38.720Z,96709.67
2017-11-30T06:30:42.215Z,96702.80
2017-11-30T06:31:45.553Z,96703.41
2017-11-30T06:32:48.520Z,96699.53
2017-11-30T06:33:51.696Z,96700.25
2017-11-30T06:34:55.046Z,96698.72
2017-11-30T06:35:58.183Z,96697.38
2017-11-30T06:37:01.255Z,96700.69
2017-11-30T06:38:04.755Z,96705.06
2017-11-30T06:39:07.841Z,96704.67
2017-11-30T06:40:10.831Z,96704.47
2017-11-30T06:41:14.008Z,96700.83
2017-11-30T06:42:17.470Z,96703.72
2017-11-30T06:43:20.575Z,96704.14
2017-11-30T06:44:23.995Z,96711.00
2017-11-30T06:45:26.974Z,96710.09
2017-11-30T06:46:30.097Z,96713.30
2017-11-30T06:47:33.120Z,96710.95
2017-11-30T06:48:36.233Z,96706.53
2017-11-30T06:49:39.726Z,96717.28
2017-11-30T06:50:42.831Z,96715.08
2017-11-30T06:51:45.954Z,96706.78
2017-11-30T06:52:48.994Z,96707.41
2017-11-30T06:53:51.981Z,96713.16
2017-11-30T06:54:54.929Z,96705.30
2017-11-30T06:55:58.536Z,96708.56
2017-11-30T06:57:02.087Z,96707.87
2017-11-30T06:58:05.075Z,96712.04
2017-11-30T06:59:08.008Z,96708.70
2017-11-30T07:00:11.032Z,96709.66
2017-11-30T07:01:14.050Z,96712.69
2017-11-30T07:02:17.486Z,96713.06
2017-11-30T07:03:20.565Z,96710.23
2017-11-30T07:04:23.514Z,96713.06
2017-11-30T07:05:26.467Z,96712.14
2017-11-30T07:06:29.446Z,96714.88
2017-11-30T07:07:32.442Z,96716.03
2017-11-30T07:08:35.726Z,96710.24
2017-11-30T07:09:38.703Z,96716.00
2017-11-30T07:10:41.825Z,96717.67
2017-11-30T07:11:44.982Z,96713.64
2017-11-30T07:12:47.919Z,96718.11
2017-11-30T07:13:50.888Z,96720.03
2017-11-30T07:14:54.334Z,96717.88
2017-11-30T07:15:57.312Z,96712.28
2017-11-30T07:17:00.368Z,96715.41
2017-11-30T07:18:04.102Z,96716.85
2017-11-30T07:19:07.065Z,96716.14
2017-11-30T07:20:09.969Z,96724.96
2017-11-30T07:21:13.311Z,96713.64
2017-11-30T07:22:16.294Z,96714.22
2017-11-30T07:23:19.224Z,96712.67
2017-11-30T07:24:22.090Z,96719.92
2017-11-30T07:25:25.013Z,96721.89
2017-11-30T07:26:27.876Z,96723.81
2017-11-30T07:27:31.421Z,96722.43
2017-11-30T07:28:34.519Z,96725.16
2017-11-30T07:29:37.588Z,96724.97
2017-11-30T07:30:40.552Z,96724.39
2017-11-30T07:31:43.464Z,96722.09
2017-11-30T07:32:46.436Z,96721.83
2017-11-30T07:33:49.833Z,96726.50
2017-11-30T07:34:52.746Z,96722.67
2017-11-30T07:35:55.632Z,96722.28
2017-11-30T07:36:58.605Z,96726.66
2017-11-30T07:38:01.531Z,96726.50
2017-11-30T07:39:05.196Z,96717.23
2017-11-30T07:40:08.593Z,96724.39
2017-11-30T07:41:12.590Z,96722.48
2017-11-30T07:42:16.782Z,96723.43
2017-11-30T07:43:19.790Z,96719.33
2017-11-30T07:44:22.748Z,96723.20
2017-11-30T07:45:25.691Z,96720.69
2017-11-30T07:46:29.054Z,96725.16
2017-11-30T07:47:31.951Z,96730.29
2017-11-30T07:48:34.873Z,96726.16
2017-11-30T07:49:37.750Z,96727.27
2017-11-30T07:50:40.728Z,96729.53
2017-11-30T07:51:43.699Z,96735.53
2017-11-30T07:52:46.640Z,96728.56
2017-11-30T07:53:49.589Z,96732.52
2017-11-30T07:54:52.548Z,96733.23
2017-11-30T07:55:56.139Z,96737.59
2017-11-30T07:56:59.148Z,96734.45
2017-11-30T07:58:02.725Z,96731.18
2017-11-30T07:59:06.089Z,96733.50
2017-11-30T08:00:09.109Z,96732.16
2017-11-30T08:01:12.393Z,96734.52
2017-11-30T08:02:15.474Z,96738.37
2017-11-30T08:03:18.428Z,96730.96
2017-11-30T08:04:21.837Z,96741.48
2017-11-30T08:05:24.938Z,96731.69
2017-11-30T08:06:27.953Z,96732.45
2017-11-30T08:07:31.258Z,96734.84
2017-11-30T08:08:34.776Z,96728.94
2017-11-30T08:09:37.849Z,96731.69
2017-11-30T08:10:41.474Z,96733.23
2017-11-30T08:11:44.553Z,96729.77
2017-11-30T08:12:47.540Z,96732.60
2017-11-30T08:13:50.484Z,96734.75
2017-11-30T08:14:53.961Z,96729.00
2017-11-30T08:15:57.022Z,96734.42
2017-11-30T08:17:00.460Z,96728.28
2017-11-30T08:18:03.441Z,96730.59
2017-11-30T08:19:06.463Z,96731.35
2017-11-30T08:20:09.493Z,96724.78
2017-11-30T08:21:12.449Z,96727.28
2017-11-30T08:22:15.358Z,96736.34
2017-11-30T08:23:18.881Z,96734.23
2017-11-30T08:24:21.899Z,96729.23
2017-11-30T08:25:24.970Z,96731.77
2017-11-30T08:26:28.031Z,96732.92
2017-11-30T08:27:30.977Z,96733.50
2017-11-30T08:28:34.038Z,96732.50
2017-11-30T08:29:37.371Z,96731.23
2017-11-30T08:30:40.408Z,96734.14
2017-11-30T08:31:43.514Z,96729.72
2017-11-30T08:32:46.400Z,96727.27
2017-11-30T08:33:49.333Z,96729.77
2017-11-30T08:34:52.298Z,96723.82
2017-11-30T08:35:55.617Z,96724.02
2017-11-30T08:36:58.501Z,96729.25
2017-11-30T08:38:01.545Z,96724.86
2017-11-30T08:39:04.509Z,96725.73
2017-11-30T08:40:07.444Z,96725.34
2017-11-30T08:41:10.318Z,96722.14
2017-11-30T08:42:13.730Z,96727.09
2017-11-30T08:43:16.691Z,96724.82
2017-11-30T08:44:19.784Z,96725.02
2017-11-30T08:45:22.722Z,96730.73
2017-11-30T08:46:25.681Z,96723.19
2017-11-30T08:47:28.719Z,96729.38
2017-11-30T08:48:32.011Z,96730.73
2017-11-30T08:49:35.069Z,96721.32
2017-11-30T08:50:38.231Z,96727.42
2017-11-30T08:51:41.799Z,96726.31
2017-11-30T08:52:44.668Z,96724.14
2017-11-30T08:53:47.559Z,96730.92
2017-11-30T08:54:50.812Z,96732.84
2017-11-30T08:55:53.793Z,96732.63
2017-11-30T08:56:57.190Z,96728.22
2017-11-30T08:58:00.014Z,96728.04
2017-11-30T08:59:03.033Z,96727.94
2017-11-30T09:00:05.945Z,96734.25
2017-11-30T09:01:10.023Z,96729.97
2017-11-30T09:02:13.045Z,96726.71
2017-11-30T09:03:16.044Z,96729.00
2017-11-30T09:04:19.040Z,96727.79
2017-11-30T09:05:22.034Z,96729.89
2017-11-30T09:06:25.112Z,96724.87
2017-11-30T09:07:28.598Z,96723.64
2017-11-30T09:08:31.652Z,96728.31
2017-11-30T09:09:34.861Z,96726.31
2017-11-30T09:10:38.461Z,96723.29
2017-11-30T09:11:42.128Z,96721.52
2017-11-30T09:12:44.853Z,96722.67
2017-11-30T09:13:48.022Z,96730.91
2017-11-30T09:14:50.645Z,96729.52
2017-11-30T09:15:53.499Z,96730.16
2017-11-30T09:16:56.340Z,96731.01
2017-11-30T09:17:58.948Z,96731.25
2017-11-30T09:19:01.536Z,96739.50
2017-11-30T09:20:04.635Z,96732.41
2017-11-30T09:21:07.281Z,96732.84
2017-11-30T09:22:09.900Z,96731.48
2017-11-30T09:23:12.613Z,96727.98
2017-11-30T09:24:15.223Z,96726.41
2017-11-30T09:25:18.003Z,96725.68
2017-11-30T09:26:21.022Z,96728.75
2017-11-30T09:27:23.797Z,96724.47
2017-11-30T09:28:26.520Z,96720.27
2017-11-30T09:29:29.202Z,96726.75
2017-11-30T09:30:31.856Z,96722.61
2017-11-30T09:31:34.637Z,96718.95
2017-11-30T09:32:37.692Z,96728.63
2017-11-30T09:33:40.325Z,96729.06
2017-11-30T09:34:43.036Z,96722.42
2017-11-30T09:35:46.053Z,96720.19
2017-11-30T09:36:48.877Z,96720.55
2017-11-30T09:37:51.518Z,96720.75
2017-11-30T09:38:54.367Z,96726.48
2017-11-30T09:39:57.078Z,96718.36
2017-11-30T09:40:59.837Z,96721.14
2017-11-30T09:42:02.584Z,96721.00
2017-11-30T09:43:05.311Z,96726.95
2017-11-30T09:44:08.682Z,96722.30
2017-11-30T09:45:11.369Z,96721.26
2017-11-30T09:46:14.049Z,96722.76
2017-11-30T09:47:16.743Z,96724.52
2017-11-30T09:48:19.428Z,96720.91
2017-11-30T09:49:22.219Z,96719.13
2017-11-30T09:50:25.319Z,96716.52
2017-11-30T09:51:28.175Z,96719.22
2017-11-30T09:52:30.816Z,96718.08
2017-11-30T09:53:33.507Z,96718.38
2017-11-30T09:54:36.193Z,96717.51
2017-11-30T09:55:38.885Z,96718.36
2017-11-30T09:56:42.983Z,96717.97
2017-11-30T09:57:45.782Z,96713.38
2017-11-30T09:58:48.515Z,96713.88
2017-11-30T09:59:51.273Z,96716.26
2017-11-30T10:00:53.871Z,96717.30
2017-11-30T10:01:56.723Z,96713.27
2017-11-30T10:02:59.855Z,96709.53
2017-11-30T10:04:02.676Z,96712.20
2017-11-30T10:05:05.382Z,96715.11
2017-11-30T10:06:08.042Z,96707.91
2017-11-30T10:07:10.671Z,96703.84
2017-11-30T10:08:13.359Z,96709.79
2017-11-30T10:09:16.012Z,96707.22
2017-11-30T10:10:18.804Z,96702.38
2017-11-30T10:11:21.603Z,96698.92
2017-11-30T10:12:24.334Z,96704.00
2017-11-30T10:13:27.100Z,96704.36
2017-11-30T10:14:30.413Z,96694.45
2017-11-30T10:15:33.063Z,96696.47
2017-11-30T10:16:35.845Z,96694.63
2017-11-30T10:17:38.955Z,96690.88
2017-11-30T10:18:41.911Z,96690.79
2017-11-30T10:19:44.659Z,96689.12
2017-11-30T10:20:47.811Z,96683.70
2017-11-30T10:21:50.492Z,96682.84
2017-11-30T10:22:53.168Z,96685.41
2017-11-30T10:23:55.826Z,96684.03
2017-11-30T10:24:58.534Z,96685.88
2017-11-30T10:26:01.224Z,96681.27
2017-11-30T10:27:04.304Z,96685.48
2017-11-30T10:28:06.943Z,96685.80
2017-11-30T10:29:10.235Z,96681.35
2017-11-30T10:30:13.576Z,96675.22
2017-11-30T10:31:16.294Z,96678.80
2017-11-30T10:32:19.040Z,96668.03
2017-11-30T10:33:21.681Z,96672.80
2017-11-30T10:34:24.348Z,96678.84
2017-11-30T10:35:27.010Z,96678.47
2017-11-30T10:36:29.724Z,96671.44
2017-11-30T10:37:32.384Z,96676.00
2017-11-30T10:38:35.319Z,96677.13
2017-11-30T10:39:38.066Z,96676.78
2017-11-30T10:40:40.981Z,96676.75
2017-11-30T10:41:43.638Z,96681.17
2017-11-30T10:42:46.397Z,96680.59
2017-11-30T10:43:49.073Z,96677.31
2017-11-30T10:44:52.150Z,96675.63
2017-11-30T10:45:54.828Z,96673.10
2017-11-30T10:46:57.503Z,96677.69
2017-11-30T10:48:00.154Z,96679.73
2017-11-30T10:49:02.822Z,96675.85
2017-11-30T10:50:05.557Z,96672.25
2017-11-30T10:51:08.527Z,96672.80
2017-11-30T10:52:11.203Z,96673.91
2017-11-30T10:53:13.867Z,96671.44
2017-11-30T10:54:16.674Z,96673.95
2017-11-30T10:55:19.371Z,96673.42
2017-11-30T10:56:22.804Z,96674.27
2017-11-30T10:57:25.759Z,96672.25
2017-11-30T10:58:28.480Z,96670.06
2017-11-30T10:59:31.203Z,96676.59
2017-11-30T11:00:33.860Z,96672.27
2017-11-30T11:01:36.580Z,96667.99
2017-11-30T11:02:39.796Z,96671.17
2017-11-30T11:03:42.856Z,96669.38
2017-11-30T11:04:45.640Z,96665.44
2017-11-30T11:05:48.355Z,96662.73
2017-11-30T11:06:51.101Z,96670.98
2017-11-30T11:07:53.773Z,96667.59
2017-11-30T11:08:56.463Z,96669.00
2017-11-30T11:09:59.634Z,96670.16
2017-11-30T11:11:02.324Z,96665.05
2017-11-30T11:12:05.089Z,96667.23
2017-11-30T11:13:07.698Z,96663.64
2017-11-30T11:14:10.990Z,96668.08
2017-11-30T11:15:13.745Z,96665.71
2017-11-30T11:16:16.824Z,96668.28
2017-11-30T11:17:19.586Z,96667.23
2017-11-30T11:18:22.299Z,96663.02
2017-11-30T11:19:25.008Z,96662.22
2017-11-30T11:20:27.786Z,96666.45
2017-11-30T11:21:30.473Z,96666.06
2017-11-30T11:22:33.653Z,96667.70
2017-11-30T11:23:36.618Z,96664.39
2017-11-30T11:24:39.594Z,96658.51
2017-11-30T11:25:42.563Z,96659.96
2017-11-30T11:26:45.518Z,96657.31
2017-11-30T11:27:48.567Z,96656.77
2017-11-30T11:28:51.912Z,96652.27
2017-11-30T11:29:55.702Z,96652.42
2017-11-30T11:30:58.700Z,96657.94
2017-11-30T11:32:01.696Z,96657.81
2017-11-30T11:33:04.654Z,96649.83
2017-11-30T11:34:07.623Z,96648.22
2017-11-30T11:35:10.907Z,96653.48
2017-11-30T11:36:13.941Z,96648.50
2017-11-30T11:37:16.918Z,96652.34
2017-11-30T11:38:19.902Z,96645.91
2017-11-30T11:39:22.895Z,96649.54
2017-11-30T11:40:25.859Z,96650.11
2017-11-30T11:41:29.153Z,96647.33
2017-11-30T11:42:32.169Z,96642.85
2017-11-30T11:43:35.409Z,96645.85
2017-11-30T11:44:38.358Z,96646.10
2017-11-30T11:45:41.315Z,96647.17
2017-11-30T11:46:44.290Z,96646.86
2017-11-30T11:47:47.566Z,96649.67
2017-11-30T11:48:50.514Z,96647.70
2017-11-30T11:49:53.522Z,96648.48
2017-11-30T11:50:57.529Z,96639.75
2017-11-30T11:52:00.475Z,96640.89
2017-11-30T11:53:03.507Z,96641.17
2017-11-30T11:54:06.813Z,96634.05
2017-11-30T11:55:09.879Z,96635.49
2017-11-30T11:56:12.904Z,96635.70
2017-11-30T11:57:15.922Z,96629.87
2017-11-30T11:58:18.921Z,96631.98
2017-11-30T11:59:22.151Z,96632.55
2017-11-30T12:00:25.612Z,96635.62
2017-11-30T12:01:28.500Z,96630.39
2017-11-30T12:02:31.622Z,96624.27
2017-11-30T12:03:34.646Z,96633.97
2017-11-30T12:04:37.657Z,96631.93
2017-11-30T12:05:40.611Z,96629.33
2017-11-30T12:06:43.652Z,96627.19
2017-11-30T12:07:46.613Z,96630.74
2017-11-30T12:08:49.584Z,96628.00
2017-11-30T12:09:52.571Z,96621.84
2017-11-30T12:10:55.536Z,96629.25
2017-11-30T12:11:58.786Z,96629.02
2017-11-30T12:13:02.079Z,96629.35
2017-11-30T12:14:05.337Z,96630.34
2017-11-30T12:15:08.304Z,96629.21
2017-11-30T12:16:11.353Z,96635.74
2017-11-30T12:17:14.316Z,96625.80
2017-11-30T12:18:17.590Z,96632.52
2017-11-30T12:19:20.571Z,96625.37
2017-11-30T12:20:23.506Z,96624.21